CheckWX is a tool to help pilots better visualize weather data.  It is not intended as a substitute for an official pre-flight weather briefing.

05:09:17 UTC

NSTU TAF
Pago Pago International Airport
Pago Pago, American Samoa
NSTU 172345Z 1800/1824 12012KT P6SM FEW020 SCT040 BKN250

Jun-18@
00:00 UTC

Jun-18 @ 00:00 UTC

Jun-19@
00:00 UTC

Jun-19 @ 00:00 UTC

NSTU 172345Z 1800/1824 12012KT P6SM FEW020 SCT040 BKN250
Wind
  • 120° at 12 KTS
Cloud Levels
  • Few at 2,000' AGL
  • Scattered at 4,000' AGL
  • Broken at 25,000' AGL